»·PEaware :: N326MC KVNY-KSFO

N326MC :: KVNY-KSFO

FLIGHT INFORMATION

Flight Status: Arrived
Operator: Privately registered:
United States
More flights under this callsign
Pilot: Anonymous 5456 (5456)
Aircraft: ECLIPSE 500
(EA50)
More flights by this aircraft type
Origin: KVNY Van Nuys
United States
Destination: KSFO San Francisco Intl
United States
More flights between these airports :: More routes between these airports
Route: +WLKKR1 COREZ MAKRS BSR BSR3
File this flight plan on PilotEdge
Remarks:
Altitude:
(Current/Filed)
24,000ft
Speed:
(Current/Filed)
250kts
Departed: 19-Sep-17 11:44 AM
Arrived: 19-Sep-17 12:55 PM
Distance/Time
Traveled:
279nm/1:11
Distance/Time
To Go:
Arrived

Flight Plot

Page will automatically refresh every two minutes.

Flight plan parsing failed; only flown route is shown


Map Options




Map Legend


Flown Route
Filed Route
Departure Airport
Arrival Airport
Navaid (VOR, NDB)
Fix

Horizontal Profiles

Position Reports

Time Latitude Longitude Heading Altitude Ground
Speed
19-Sep-17 11:34 34.207223 -118.491999 89 804ft 0kts
19-Sep-17 11:35 34.207223 -118.491999 89 804ft 0kts
19-Sep-17 11:36 34.207223 -118.491999 89 804ft 0kts
19-Sep-17 11:37 34.207223 -118.491999 89 804ft 0kts
19-Sep-17 11:38 34.207223 -118.491999 89 804ft 0kts
19-Sep-17 11:39 34.207223 -118.491999 89 804ft 0kts
19-Sep-17 11:40 34.207223 -118.491999 89 804ft 0kts
19-Sep-17 11:41 34.207223 -118.491999 89 804ft 0kts
19-Sep-17 11:42 34.207224 -118.491889 89 804ft 2kts
19-Sep-17 11:43 34.209084 -118.491468 355 804ft 14kts
19-Sep-17 11:44 34.212219 -118.491775 354 804ft 13kts
19-Sep-17 11:45 34.215729 -118.492171 359 804ft 11kts
19-Sep-17 11:46 34.218235 -118.492354 354 804ft 10kts
19-Sep-17 11:47 34.218054 -118.491145 176 804ft 23kts
19-Sep-17 11:48 34.190406 -118.492877 215 1518ft 153kts
19-Sep-17 11:49 34.159771 -118.526411 221 3678ft 177kts
19-Sep-17 11:50 34.134321 -118.577327 262 6029ft 204kts
19-Sep-17 11:51 34.175477 -118.607273 357 8460ft 211kts
19-Sep-17 11:52 34.238448 -118.610219 356 10443ft 235kts
19-Sep-17 11:53 34.300806 -118.620281 337 12644ft 229kts
19-Sep-17 11:54 34.361201 -118.642802 338 14478ft 234kts
19-Sep-17 11:55 34.416218 -118.668992 332 16240ft 229kts
19-Sep-17 11:56 34.471430 -118.705912 325 17770ft 233kts
19-Sep-17 11:57 34.527739 -118.745526 325 19231ft 236kts
19-Sep-17 11:58 34.584275 -118.785477 324 20685ft 234kts
19-Sep-17 11:59 34.639885 -118.824881 324 22060ft 230kts
19-Sep-17 12:00 34.694425 -118.863596 324 23339ft 226kts
19-Sep-17 12:01 34.748968 -118.902445 324 24105ft 240kts
19-Sep-17 12:02 34.810779 -118.946532 325 24106ft 274kts
19-Sep-17 12:03 34.876588 -118.993460 325 24103ft 294kts
19-Sep-17 12:04 34.948696 -119.044980 325 24102ft 308kts
19-Sep-17 12:05 35.023165 -119.098311 325 24069ft 317kts
19-Sep-17 12:06 35.099199 -119.152890 325 24045ft 321kts
19-Sep-17 12:07 35.175194 -119.207562 325 24048ft 323kts
19-Sep-17 12:08 35.252296 -119.263161 325 24047ft 323kts
19-Sep-17 12:09 35.329604 -119.319034 325 24046ft 323kts
19-Sep-17 12:10 35.406950 -119.375061 325 24045ft 323kts
19-Sep-17 12:11 35.484068 -119.431060 325 24045ft 323kts
19-Sep-17 12:12 35.554765 -119.493985 292 24042ft 314kts
19-Sep-17 12:13 35.573213 -119.598559 282 24043ft 313kts
19-Sep-17 12:14 35.588897 -119.700532 281 24050ft 313kts
19-Sep-17 12:15 35.604491 -119.805136 281 24049ft 314kts
19-Sep-17 12:16 35.619984 -119.910332 281 24048ft 314kts
19-Sep-17 12:17 35.635324 -120.014588 279 24047ft 310kts
19-Sep-17 12:18 35.650229 -120.117857 280 24046ft 307kts
19-Sep-17 12:19 35.665091 -120.220855 280 24045ft 306kts
19-Sep-17 12:20 35.679759 -120.323266 280 24044ft 305kts
19-Sep-17 12:21 35.712289 -120.418845 293 24043ft 306kts
19-Sep-17 12:22 35.748698 -120.512444 293 24042ft 304kts
19-Sep-17 12:23 35.785055 -120.606167 293 24041ft 304kts
19-Sep-17 12:24 35.819765 -120.695649 293 24050ft 305kts
19-Sep-17 12:25 35.856143 -120.789635 293 24049ft 305kts
19-Sep-17 12:26 35.892538 -120.883909 293 24048ft 305kts
19-Sep-17 12:27 35.928516 -120.977427 293 24047ft 305kts
19-Sep-17 12:28 35.964747 -121.071821 293 24046ft 305kts
19-Sep-17 12:29 36.000728 -121.165908 293 24045ft 305kts
19-Sep-17 12:30 36.036552 -121.259920 294 24070ft 303kts
19-Sep-17 12:31 36.070149 -121.354903 293 24069ft 303kts
19-Sep-17 12:32 36.105014 -121.445622 294 24071ft 303kts
19-Sep-17 12:33 36.137594 -121.529664 294 24071ft 303kts
19-Sep-17 12:34 36.174006 -121.623353 294 24085ft 303kts
19-Sep-17 12:35 36.237704 -121.690884 319 24082ft 313kts
19-Sep-17 12:36 36.308875 -121.752778 319 24078ft 314kts
19-Sep-17 12:37 36.380112 -121.814624 320 23658ft 315kts
19-Sep-17 12:38 36.450912 -121.875842 323 22172ft 312kts
19-Sep-17 12:39 36.536462 -121.903463 340 20682ft 319kts
19-Sep-17 12:40 36.622414 -121.928664 340 19191ft 319kts
19-Sep-17 12:41 36.708466 -121.953855 341 17695ft 319kts
19-Sep-17 12:42 36.794103 -121.977365 343 16135ft 308kts
19-Sep-17 12:43 36.874477 -121.998433 343 14532ft 292kts
19-Sep-17 12:44 36.951359 -122.018559 344 12942ft 285kts
19-Sep-17 12:45 37.027796 -122.038585 345 11331ft 281kts
19-Sep-17 12:46 37.101560 -122.057970 345 10007ft 271kts
19-Sep-17 12:47 37.172466 -122.076614 346 9124ft 265kts
19-Sep-17 12:48 37.244044 -122.095601 347 7780ft 273kts
19-Sep-17 12:49 37.317472 -122.114950 347 6306ft 274kts
19-Sep-17 12:50 37.386929 -122.133323 347 5644ft 248kts
19-Sep-17 12:51 37.447226 -122.149199 345 4052ft 222kts
19-Sep-17 12:52 37.501098 -122.163523 345 3740ft 183kts
19-Sep-17 12:53 37.541294 -122.183780 294 2995ft 158kts
19-Sep-17 12:54 37.561705 -122.233960 298 2191ft 168kts
19-Sep-17 12:55 37.582082 -122.282403 299 1364ft 141kts
19-Sep-17 12:56 37.595264 -122.313723 299 823ft 119kts
19-Sep-17 12:57 37.611535 -122.352395 300 182ft 106kts
19-Sep-17 12:58 37.622429 -122.378384 299 16ft 49kts
19-Sep-17 12:59 37.625348 -122.381617 296 16ft 5kts
19-Sep-17 13:00 37.626736 -122.384617 354 16ft 4kts
19-Sep-17 13:01 37.627383 -122.384535 299 16ft 0kts

Navigation Log

Ident Type
Flight plan parsing failed, navigation log unavailable